Pointe Noire Airport


Codes: FCPP/PNR
Name: Pointe Noire Airport
City: Pointe Noire
Country: Congo [Republic]
Elevation: 55 ft.
Wikipedia:

Photos at Pointe Noire Airport


   Photos courtesy of SpottingLog. You can add your own sightings and photos by signing up for a free trial today.



No photos found.

Weather at Pointe Noire Airport


Time (UTC)DescriptionTempratureWindCloud coverageVisibilityPressureHumidity
21-Feb-2024 03:00Overcast Clouds26°C4 mph, SE98%10000m1008hPa84%
21-Feb-2024 06:00Overcast Clouds26°C4 mph, SE98%10000m1009hPa85%
21-Feb-2024 09:00Overcast Clouds29°C2 mph, SE99%10000m1010hPa72%
21-Feb-2024 12:00Overcast Clouds31°C9 mph, SW100%10000m1007hPa68%
21-Feb-2024 15:00Broken Clouds30°C11 mph, SW71%10000m1005hPa74%
21-Feb-2024 18:00Broken Clouds28°C11 mph, SW56%10000m1005hPa85%
21-Feb-2024 21:00Overcast Clouds28°C4 mph, SW96%10000m1008hPa88%
22-Feb-2024 00:00Light Rain27°C4 mph, SW96%10000m1007hPa89%
22-Feb-2024 03:00Light Rain27°C2 mph, SW100%10000m1007hPa89%
22-Feb-2024 06:00Light Rain27°C0 mph, SW100%10000m1008hPa88%
22-Feb-2024 09:00Overcast Clouds30°C4 mph, SW100%10000m1009hPa73%
22-Feb-2024 12:00Light Rain30°C7 mph, SW94%10000m1007hPa71%
22-Feb-2024 15:00Moderate Rain28°C4 mph, SE99%7865m1006hPa82%
22-Feb-2024 18:00Moderate Rain25°C9 mph, NE99%10000m1008hPa91%
22-Feb-2024 21:00Light Rain25°C9 mph, NW100%10000m1008hPa87%
23-Feb-2024 00:00Overcast Clouds26°C4 mph, N100%10000m1009hPa85%
23-Feb-2024 03:00Light Rain25°C4 mph, NE100%10000m1009hPa87%
23-Feb-2024 06:00Light Rain25°C2 mph, NE100%10000m1010hPa85%
23-Feb-2024 09:00Light Rain27°C2 mph, N100%10000m1011hPa78%
23-Feb-2024 12:00Light Rain29°C7 mph, W100%10000m1009hPa74%
23-Feb-2024 15:00Light Rain28°C11 mph, W100%10000m1008hPa77%
23-Feb-2024 18:00Overcast Clouds27°C11 mph, W100%10000m1009hPa81%
23-Feb-2024 21:00Overcast Clouds27°C4 mph, W99%10000m1010hPa84%
24-Feb-2024 00:00Overcast Clouds26°C0 mph, E99%10000m1010hPa86%
24-Feb-2024 03:00Overcast Clouds26°C2 mph, N99%10000m1010hPa88%
24-Feb-2024 06:00Overcast Clouds26°C2 mph, NE95%10000m1012hPa89%
24-Feb-2024 09:00Overcast Clouds28°C0 mph, S100%10000m1012hPa76%
24-Feb-2024 12:00Overcast Clouds30°C7 mph, SW100%10000m1010hPa69%
24-Feb-2024 15:00Overcast Clouds29°C7 mph, SW99%10000m1009hPa75%
24-Feb-2024 18:00Overcast Clouds28°C7 mph, W100%10000m1010hPa80%
24-Feb-2024 21:00Light Rain27°C4 mph, S100%10000m1013hPa85%
25-Feb-2024 00:00Light Rain26°C2 mph, SE100%10000m1011hPa87%
25-Feb-2024 03:00Overcast Clouds26°C4 mph, SE100%10000m1010hPa88%
25-Feb-2024 06:00Light Rain25°C7 mph, E100%10000m1012hPa91%
25-Feb-2024 09:00Light Rain27°C2 mph, NE100%10000m1014hPa79%
25-Feb-2024 12:00Light Rain27°C4 mph, S100%7797m1012hPa82%
25-Feb-2024 15:00Light Rain27°C7 mph, SW100%10000m1011hPa81%
25-Feb-2024 18:00Overcast Clouds26°C4 mph, SW100%10000m1012hPa83%
25-Feb-2024 21:00Moderate Rain26°C9 mph, N100%10000m1014hPa87%
26-Feb-2024 00:00Light Rain25°C2 mph, E99%10000m1012hPa87%